sensor_id;sensor_type;location;lat;lon;timestamp;P1;durP1;ratioP1;P2;durP2;ratioP2
16033;SDS011;8121;51.418;6.998;2022-08-01T00:04:06;3.43;;;3.13;;
16033;SDS011;8121;51.418;6.998;2022-08-01T00:14:08;3.40;;;3.20;;
16033;SDS011;8121;51.418;6.998;2022-08-01T00:24:12;7.60;;;5.50;;
16033;SDS011;8121;51.418;6.998;2022-08-01T00:34:13;8.53;;;5.10;;
16033;SDS011;8121;51.418;6.998;2022-08-01T00:44:17;4.97;;;4.47;;
16033;SDS011;8121;51.418;6.998;2022-08-01T00:54:18;4.40;;;4.00;;
16033;SDS011;8121;51.418;6.998;2022-08-01T01:04:21;5.03;;;4.17;;
16033;SDS011;8121;51.418;6.998;2022-08-01T01:14:26;7.57;;;4.97;;
16033;SDS011;8121;51.418;6.998;2022-08-01T01:24:33;5.60;;;3.70;;
16033;SDS011;8121;51.418;6.998;2022-08-01T01:34:51;4.40;;;4.00;;
16033;SDS011;8121;51.418;6.998;2022-08-01T01:44:55;7.63;;;4.07;;
16033;SDS011;8121;51.418;6.998;2022-08-01T01:54:58;10.10;;;7.27;;
16033;SDS011;8121;51.418;6.998;2022-08-01T02:05:00;10.60;;;6.60;;
16033;SDS011;8121;51.418;6.998;2022-08-01T02:15:04;14.63;;;8.37;;
16033;SDS011;8121;51.418;6.998;2022-08-01T02:25:10;8.03;;;6.43;;
16033;SDS011;8121;51.418;6.998;2022-08-01T02:35:18;5.47;;;4.17;;
16033;SDS011;8121;51.418;6.998;2022-08-01T02:45:22;10.30;;;6.40;;
16033;SDS011;8121;51.418;6.998;2022-08-01T02:55:28;5.50;;;4.73;;
16033;SDS011;8121;51.418;6.998;2022-08-01T03:05:30;12.37;;;8.67;;
16033;SDS011;8121;51.418;6.998;2022-08-01T03:15:34;8.67;;;5.60;;
16033;SDS011;8121;51.418;6.998;2022-08-01T03:25:39;9.73;;;5.93;;
16033;SDS011;8121;51.418;6.998;2022-08-01T03:35:45;13.00;;;7.47;;
16033;SDS011;8121;51.418;6.998;2022-08-01T03:45:49;7.40;;;6.60;;
16033;SDS011;8121;51.418;6.998;2022-08-01T03:55:53;10.80;;;8.57;;
16033;SDS011;8121;51.418;6.998;2022-08-01T04:05:57;9.43;;;7.27;;
16033;SDS011;8121;51.418;6.998;2022-08-01T04:16:00;6.77;;;6.00;;
16033;SDS011;8121;51.418;6.998;2022-08-01T04:26:02;6.03;;;5.23;;
16033;SDS011;8121;51.418;6.998;2022-08-01T04:36:06;9.03;;;5.03;;
16033;SDS011;8121;51.418;6.998;2022-08-01T04:46:11;4.73;;;4.30;;
16033;SDS011;8121;51.418;6.998;2022-08-01T04:56:15;14.63;;;8.57;;
16033;SDS011;8121;51.418;6.998;2022-08-01T05:06:17;10.67;;;6.73;;
16033;SDS011;8121;51.418;6.998;2022-08-01T05:16:20;10.30;;;7.40;;
16033;SDS011;8121;51.418;6.998;2022-08-01T05:26:22;7.17;;;5.80;;
16033;SDS011;8121;51.418;6.998;2022-08-01T05:36:25;5.77;;;5.17;;
16033;SDS011;8121;51.418;6.998;2022-08-01T05:46:26;6.97;;;5.60;;
16033;SDS011;8121;51.418;6.998;2022-08-01T05:56:31;7.03;;;4.13;;
16033;SDS011;8121;51.418;6.998;2022-08-01T06:06:33;7.40;;;4.90;;
16033;SDS011;8121;51.418;6.998;2022-08-01T06:16:35;19.30;;;9.93;;
16033;SDS011;8121;51.418;6.998;2022-08-01T06:26:37;7.97;;;5.23;;
16033;SDS011;8121;51.418;6.998;2022-08-01T06:36:40;9.47;;;5.83;;
16033;SDS011;8121;51.418;6.998;2022-08-01T06:46:42;4.30;;;3.70;;
16033;SDS011;8121;51.418;6.998;2022-08-01T06:56:44;5.47;;;4.43;;
16033;SDS011;8121;51.418;6.998;2022-08-01T07:06:46;3.47;;;3.20;;
16033;SDS011;8121;51.418;6.998;2022-08-01T07:16:49;2.93;;;2.73;;
16033;SDS011;8121;51.418;6.998;2022-08-01T07:26:50;2.30;;;2.10;;
16033;SDS011;8121;51.418;6.998;2022-08-01T07:36:55;2.53;;;2.30;;
16033;SDS011;8121;51.418;6.998;2022-08-01T07:46:56;1.93;;;1.83;;
16033;SDS011;8121;51.418;6.998;2022-08-01T07:56:59;2.60;;;1.97;;
16033;SDS011;8121;51.418;6.998;2022-08-01T08:07:01;3.13;;;2.93;;
16033;SDS011;8121;51.418;6.998;2022-08-01T08:17:04;2.23;;;2.10;;
16033;SDS011;8121;51.418;6.998;2022-08-01T08:27:06;5.13;;;3.00;;
16033;SDS011;8121;51.418;6.998;2022-08-01T08:37:09;3.50;;;2.43;;
16033;SDS011;8121;51.418;6.998;2022-08-01T08:47:11;1.73;;;1.63;;
16033;SDS011;8121;51.418;6.998;2022-08-01T08:57:14;2.60;;;2.30;;
16033;SDS011;8121;51.418;6.998;2022-08-01T09:07:16;2.63;;;2.43;;
16033;SDS011;8121;51.418;6.998;2022-08-01T09:17:19;3.83;;;3.50;;
16033;SDS011;8121;51.418;6.998;2022-08-01T09:27:21;6.50;;;2.10;;
16033;SDS011;8121;51.418;6.998;2022-08-01T09:37:30;1.97;;;1.77;;
16033;SDS011;8121;51.418;6.998;2022-08-01T09:47:36;1.70;;;1.60;;
16033;SDS011;8121;51.418;6.998;2022-08-01T09:57:39;2.13;;;1.37;;
16033;SDS011;8121;51.418;6.998;2022-08-01T10:07:54;2.60;;;1.83;;
16033;SDS011;8121;51.418;6.998;2022-08-01T10:17:59;2.00;;;1.67;;
16033;SDS011;8121;51.418;6.998;2022-08-01T10:28:05;2.80;;;2.60;;
16033;SDS011;8121;51.418;6.998;2022-08-01T10:38:11;3.73;;;2.43;;
16033;SDS011;8121;51.418;6.998;2022-08-01T10:48:14;1.80;;;1.70;;
16033;SDS011;8121;51.418;6.998;2022-08-01T10:58:24;1.20;;;1.10;;
16033;SDS011;8121;51.418;6.998;2022-08-01T11:08:26;3.23;;;1.10;;
16033;SDS011;8121;51.418;6.998;2022-08-01T11:18:30;2.10;;;2.00;;
16033;SDS011;8121;51.418;6.998;2022-08-01T11:28:32;1.10;;;1.00;;
16033;SDS011;8121;51.418;6.998;2022-08-01T11:38:36;1.07;;;0.97;;
16033;SDS011;8121;51.418;6.998;2022-08-01T11:48:49;1.70;;;1.10;;
16033;SDS011;8121;51.418;6.998;2022-08-01T11:59:22;0.90;;;0.67;;
16033;SDS011;8121;51.418;6.998;2022-08-01T12:09:27;2.20;;;2.00;;
16033;SDS011;8121;51.418;6.998;2022-08-01T12:19:37;1.83;;;1.73;;
16033;SDS011;8121;51.418;6.998;2022-08-01T12:30:06;1.40;;;1.30;;
16033;SDS011;8121;51.418;6.998;2022-08-01T12:40:18;2.00;;;1.23;;
16033;SDS011;8121;51.418;6.998;2022-08-01T12:50:22;1.10;;;1.00;;
16033;SDS011;8121;51.418;6.998;2022-08-01T13:00:32;3.10;;;0.97;;
16033;SDS011;8121;51.418;6.998;2022-08-01T13:10:34;1.00;;;1.00;;
16033;SDS011;8121;51.418;6.998;2022-08-01T13:20:38;1.17;;;1.07;;
16033;SDS011;8121;51.418;6.998;2022-08-01T13:30:49;1.07;;;1.00;;
16033;SDS011;8121;51.418;6.998;2022-08-01T13:40:58;2.30;;;1.30;;
16033;SDS011;8121;51.418;6.998;2022-08-01T13:51:00;2.30;;;1.40;;
16033;SDS011;8121;51.418;6.998;2022-08-01T14:01:03;2.73;;;1.20;;
16033;SDS011;8121;51.418;6.998;2022-08-01T14:11:05;2.10;;;1.47;;
16033;SDS011;8121;51.418;6.998;2022-08-01T14:21:08;0.70;;;0.63;;
16033;SDS011;8121;51.418;6.998;2022-08-01T14:31:09;1.20;;;1.10;;
16033;SDS011;8121;51.418;6.998;2022-08-01T14:41:13;2.50;;;1.40;;
16033;SDS011;8121;51.418;6.998;2022-08-01T14:51:14;1.30;;;1.20;;
16033;SDS011;8121;51.418;6.998;2022-08-01T15:01:17;0.90;;;0.90;;
16033;SDS011;8121;51.418;6.998;2022-08-01T15:11:19;1.20;;;1.10;;
16033;SDS011;8121;51.418;6.998;2022-08-01T15:21:22;3.00;;;1.67;;
16033;SDS011;8121;51.418;6.998;2022-08-01T15:31:24;1.50;;;1.40;;
16033;SDS011;8121;51.418;6.998;2022-08-01T15:41:26;1.20;;;1.10;;
16033;SDS011;8121;51.418;6.998;2022-08-01T15:51:28;4.20;;;1.53;;
16033;SDS011;8121;51.418;6.998;2022-08-01T16:01:31;1.63;;;0.80;;
16033;SDS011;8121;51.418;6.998;2022-08-01T16:11:32;0.93;;;0.93;;
16033;SDS011;8121;51.418;6.998;2022-08-01T16:21:36;1.67;;;0.90;;
16033;SDS011;8121;51.418;6.998;2022-08-01T16:31:37;1.30;;;1.20;;
16033;SDS011;8121;51.418;6.998;2022-08-01T16:41:40;3.10;;;2.00;;
16033;SDS011;8121;51.418;6.998;2022-08-01T16:51:42;1.30;;;1.20;;
16033;SDS011;8121;51.418;6.998;2022-08-01T17:01:45;1.03;;;0.70;;
16033;SDS011;8121;51.418;6.998;2022-08-01T17:11:46;0.80;;;0.80;;
16033;SDS011;8121;51.418;6.998;2022-08-01T17:21:49;1.47;;;1.37;;
16033;SDS011;8121;51.418;6.998;2022-08-01T17:31:51;1.27;;;1.07;;
16033;SDS011;8121;51.418;6.998;2022-08-01T17:41:54;1.40;;;1.30;;
16033;SDS011;8121;51.418;6.998;2022-08-01T17:51:55;1.77;;;1.67;;
16033;SDS011;8121;51.418;6.998;2022-08-01T18:01:58;1.73;;;1.60;;
16033;SDS011;8121;51.418;6.998;2022-08-01T18:12:00;2.20;;;1.67;;
16033;SDS011;8121;51.418;6.998;2022-08-01T18:22:03;7.20;;;1.60;;
16033;SDS011;8121;51.418;6.998;2022-08-01T18:32:05;1.93;;;1.77;;
16033;SDS011;8121;51.418;6.998;2022-08-01T18:42:08;2.57;;;1.63;;
16033;SDS011;8121;51.418;6.998;2022-08-01T18:52:09;2.63;;;1.90;;
16033;SDS011;8121;51.418;6.998;2022-08-01T19:02:12;2.53;;;1.70;;
16033;SDS011;8121;51.418;6.998;2022-08-01T19:12:14;1.00;;;0.67;;
16033;SDS011;8121;51.418;6.998;2022-08-01T19:22:16;1.50;;;1.10;;
16033;SDS011;8121;51.418;6.998;2022-08-01T19:32:18;5.47;;;1.87;;
16033;SDS011;8121;51.418;6.998;2022-08-01T19:42:21;4.77;;;1.30;;
16033;SDS011;8121;51.418;6.998;2022-08-01T19:52:24;1.73;;;1.10;;
16033;SDS011;8121;51.418;6.998;2022-08-01T20:02:27;1.23;;;1.00;;
16033;SDS011;8121;51.418;6.998;2022-08-01T20:12:29;1.40;;;1.00;;
16033;SDS011;8121;51.418;6.998;2022-08-01T20:22:33;3.90;;;1.47;;
16033;SDS011;8121;51.418;6.998;2022-08-01T20:32:36;1.20;;;1.10;;
16033;SDS011;8121;51.418;6.998;2022-08-01T20:42:40;1.40;;;0.80;;
16033;SDS011;8121;51.418;6.998;2022-08-01T20:52:44;1.20;;;1.10;;
16033;SDS011;8121;51.418;6.998;2022-08-01T21:02:51;1.97;;;1.00;;
16033;SDS011;8121;51.418;6.998;2022-08-01T21:13:01;2.50;;;1.00;;
16033;SDS011;8121;51.418;6.998;2022-08-01T21:23:12;1.77;;;1.00;;
16033;SDS011;8121;51.418;6.998;2022-08-01T21:33:16;2.60;;;1.37;;
16033;SDS011;8121;51.418;6.998;2022-08-01T21:43:20;4.10;;;1.30;;
16033;SDS011;8121;51.418;6.998;2022-08-01T21:53:23;1.20;;;1.00;;
16033;SDS011;8121;51.418;6.998;2022-08-01T22:03:35;2.70;;;1.07;;
16033;SDS011;8121;51.418;6.998;2022-08-01T22:13:42;1.17;;;1.07;;
16033;SDS011;8121;51.418;6.998;2022-08-01T22:23:46;3.47;;;0.83;;
16033;SDS011;8121;51.418;6.998;2022-08-01T22:33:47;1.57;;;1.17;;
16033;SDS011;8121;51.418;6.998;2022-08-01T22:43:55;2.00;;;1.20;;
16033;SDS011;8121;51.418;6.998;2022-08-01T22:54:02;1.97;;;1.50;;
16033;SDS011;8121;51.418;6.998;2022-08-01T23:04:06;2.30;;;1.77;;
16033;SDS011;8121;51.418;6.998;2022-08-01T23:14:13;1.60;;;1.23;;
16033;SDS011;8121;51.418;6.998;2022-08-01T23:24:16;1.60;;;1.47;;
16033;SDS011;8121;51.418;6.998;2022-08-01T23:34:19;1.30;;;1.20;;
16033;SDS011;8121;51.418;6.998;2022-08-01T23:44:22;1.63;;;1.43;;
16033;SDS011;8121;51.418;6.998;2022-08-01T23:54:23;1.37;;;1.27;;
